createdAt,value
2019-04-26T00:01:56.744Z,42.38
2019-04-26T00:05:59.231Z,42.24
2019-04-26T00:10:03.397Z,43.41
2019-04-26T00:14:30.931Z,43.11
2019-04-26T00:18:33.151Z,43.59
2019-04-26T00:22:35.512Z,43.77
2019-04-26T00:26:37.618Z,44.28
2019-04-26T00:30:39.841Z,44.50
2019-04-26T00:34:42.981Z,44.46
2019-04-26T00:38:45.441Z,45.02
2019-04-26T00:42:48.009Z,45.28
2019-04-26T00:46:51.096Z,45.81
2019-04-26T00:50:54.485Z,46.14
2019-04-26T00:54:58.509Z,45.88
2019-04-26T00:59:01.893Z,46.37
2019-04-26T01:03:04.154Z,46.55
2019-04-26T01:07:06.438Z,46.68
2019-04-26T01:11:08.936Z,46.43
2019-04-26T01:15:11.524Z,46.18
2019-04-26T01:19:17.095Z,46.62
2019-04-26T01:23:20.999Z,46.64
2019-04-26T01:27:26.308Z,45.61
2019-04-26T01:31:31.924Z,45.58
2019-04-26T01:35:34.437Z,45.60
2019-04-26T01:39:40.541Z,46.04
2019-04-26T01:44:03.408Z,46.34
2019-04-26T01:48:29.221Z,46.35
2019-04-26T01:52:32.619Z,47.71
2019-04-26T01:56:36.678Z,47.66
2019-04-26T02:01:01.076Z,47.98
2019-04-26T02:05:07.860Z,48.55
2019-04-26T02:09:11.584Z,48.67
2019-04-26T02:13:14.093Z,48.59
2019-04-26T02:17:16.372Z,48.55
2019-04-26T02:21:26.390Z,48.55
2019-04-26T02:25:30.097Z,48.63
2019-04-26T02:29:32.782Z,48.49
2019-04-26T02:33:36.783Z,48.66
2019-04-26T02:37:39.365Z,48.71
2019-04-26T02:41:42.822Z,48.78
2019-04-26T02:46:20.853Z,49.09
2019-04-26T02:50:35.369Z,49.08
2019-04-26T02:54:46.803Z,49.73
2019-04-26T02:59:20.758Z,49.98
2019-04-26T03:03:25.856Z,49.80
2019-04-26T03:07:46.809Z,51.70
2019-04-26T03:11:52.160Z,53.08
2019-04-26T03:16:18.526Z,53.96
2019-04-26T03:20:24.195Z,53.04
2019-04-26T03:24:35.072Z,52.53
2019-04-26T03:28:44.602Z,52.67
2019-04-26T03:33:16.567Z,51.27
2019-04-26T03:38:00.964Z,51.87
2019-04-26T03:42:21.052Z,50.98
2019-04-26T03:46:33.604Z,50.72
2019-04-26T03:50:44.916Z,51.10
2019-04-26T03:54:50.123Z,50.88
2019-04-26T03:59:31.617Z,50.94
2019-04-26T04:03:53.457Z,51.07
2019-04-26T04:07:58.501Z,50.68
2019-04-26T04:12:11.414Z,50.53
2019-04-26T04:17:22.437Z,50.76
2019-04-26T04:21:57.684Z,50.80
2019-04-26T04:26:02.623Z,50.87
2019-04-26T04:30:20.787Z,50.86
2019-04-26T04:34:29.617Z,50.69
2019-04-26T04:38:48.426Z,50.88
2019-04-26T04:43:26.114Z,51.30
2019-04-26T04:47:37.534Z,50.94
2019-04-26T04:51:51.543Z,50.62
2019-04-26T04:56:34.789Z,50.54
2019-04-26T05:01:03.608Z,50.66
2019-04-26T05:05:36.381Z,50.17
2019-04-26T05:09:49.766Z,50.75
2019-04-26T05:14:01.287Z,51.31
2019-04-26T05:18:29.337Z,51.48
2019-04-26T05:23:07.180Z,51.75
2019-04-26T05:28:09.445Z,51.26
2019-04-26T05:32:34.269Z,52.11
2019-04-26T05:37:00.471Z,51.77
2019-04-26T05:41:33.671Z,51.35
2019-04-26T05:46:19.205Z,51.80
2019-04-26T05:51:02.207Z,50.92
2019-04-26T05:56:07.260Z,50.93
2019-04-26T06:00:38.110Z,50.93
2019-04-26T06:05:26.880Z,50.74
2019-04-26T06:09:54.481Z,51.19
2019-04-26T06:14:38.527Z,50.47
2019-04-26T06:19:07.546Z,51.54
2019-04-26T06:23:32.160Z,52.11
2019-04-26T06:27:54.456Z,52.34
2019-04-26T06:32:11.103Z,52.09
2019-04-26T06:36:23.511Z,52.49
2019-04-26T06:40:48.963Z,52.08
2019-04-26T06:46:00.968Z,53.55
2019-04-26T06:50:49.729Z,51.97
2019-04-26T06:55:47.616Z,51.31
2019-04-26T07:00:18.387Z,51.91
2019-04-26T07:04:31.468Z,51.28
2019-04-26T07:08:57.808Z,50.78
2019-04-26T07:13:29.725Z,50.29
2019-04-26T07:18:24.844Z,48.83
2019-04-26T07:23:12.589Z,48.65
2019-04-26T07:27:25.163Z,49.07
2019-04-26T07:31:36.469Z,49.39
2019-04-26T07:36:04.087Z,50.13
2019-04-26T07:40:55.115Z,49.95
2019-04-26T07:45:30.430Z,47.53
2019-04-26T07:50:31.836Z,50.79
2019-04-26T07:55:03.242Z,48.45
2019-04-26T07:59:43.941Z,49.31
2019-04-26T08:03:57.451Z,48.21
2019-04-26T08:08:01.649Z,49.38
2019-04-26T08:12:08.224Z,48.54
2019-04-26T08:16:34.677Z,49.08
2019-04-26T08:20:48.503Z,48.95
2019-04-26T08:24:53.269Z,48.58
2019-04-26T08:29:00.603Z,48.65
2019-04-26T08:33:07.430Z,48.03
2019-04-26T08:37:24.258Z,48.30
2019-04-26T08:41:27.024Z,48.38
2019-04-26T08:46:01.981Z,47.32
2019-04-26T08:50:15.181Z,48.09
2019-04-26T08:54:27.641Z,47.68
2019-04-26T08:58:32.748Z,46.42
2019-04-26T09:03:11.318Z,46.63
2019-04-26T09:07:10.747Z,45.70
2019-04-26T09:11:24.085Z,47.00
2019-04-26T09:15:24.966Z,45.98
2019-04-26T09:19:30.563Z,46.28
2019-04-26T09:23:51.836Z,45.00
2019-04-26T09:27:59.657Z,45.49
2019-04-26T09:32:09.416Z,44.97
2019-04-26T09:36:11.801Z,44.45
2019-04-26T09:40:21.057Z,44.47
2019-04-26T09:44:28.216Z,43.60
2019-04-26T09:49:08.556Z,43.30
2019-04-26T09:53:11.013Z,43.20
2019-04-26T09:57:13.151Z,42.16
2019-04-26T10:01:15.185Z,42.24
2019-04-26T10:05:17.771Z,41.24
2019-04-26T10:09:22.705Z,41.19
2019-04-26T10:13:49.747Z,41.01
2019-04-26T10:17:52.507Z,40.44
2019-04-26T10:21:54.619Z,40.26
2019-04-26T10:25:56.935Z,40.30
2019-04-26T10:30:07.650Z,40.78
2019-04-26T10:34:07.797Z,40.57
2019-04-26T10:38:07.938Z,40.43
2019-04-26T10:42:10.157Z,40.35
2019-04-26T10:46:12.196Z,40.15
2019-04-26T10:50:14.718Z,40.98
2019-04-26T10:54:19.458Z,41.20
2019-04-26T10:58:46.689Z,41.32
2019-04-26T11:02:49.022Z,40.93
2019-04-26T11:06:51.068Z,41.15
2019-04-26T11:10:53.073Z,41.67
2019-04-26T11:14:56.989Z,41.98
2019-04-26T11:19:01.220Z,41.93
2019-04-26T11:23:04.385Z,41.58
2019-04-26T11:27:09.671Z,41.11
2019-04-26T11:31:10.371Z,40.84
2019-04-26T11:35:12.599Z,40.75
2019-04-26T11:39:16.875Z,40.85
2019-04-26T11:43:19.663Z,40.03
2019-04-26T11:47:22.457Z,40.90
2019-04-26T11:51:27.538Z,41.00
2019-04-26T11:55:29.797Z,41.76
2019-04-26T11:59:33.763Z,42.33
2019-04-26T12:03:35.998Z,42.30
2019-04-26T12:07:49.539Z,42.27
2019-04-26T12:12:03.961Z,41.96
2019-04-26T12:15:55.612Z,41.54
2019-04-26T12:19:58.122Z,41.56
2019-04-26T12:24:00.259Z,40.43
2019-04-26T12:28:06.059Z,40.87
2019-04-26T12:32:06.654Z,39.76
2019-04-26T12:36:09.467Z,40.94
2019-04-26T12:40:13.355Z,40.80
2019-04-26T12:44:15.935Z,40.43
2019-04-26T12:48:21.541Z,40.03
2019-04-26T12:52:23.765Z,39.95
2019-04-26T12:56:26.582Z,40.37
2019-04-26T13:00:32.854Z,41.36
2019-04-26T13:04:36.324Z,41.54
2019-04-26T13:08:37.632Z,43.00
2019-04-26T13:13:08.230Z,43.75
2019-04-26T13:17:13.899Z,44.22
2019-04-26T13:21:16.036Z,44.67
2019-04-26T13:25:26.264Z,44.44
2019-04-26T17:18:23.881Z,60.22
2019-04-26T17:22:44.225Z,60.57
2019-04-26T17:26:44.906Z,60.82
2019-04-26T17:30:47.072Z,61.94
2019-04-26T17:34:49.518Z,62.07
2019-04-26T17:38:51.695Z,62.46
2019-04-26T17:42:53.921Z,62.71
2019-04-26T17:46:59.499Z,63.15
2019-04-26T17:51:00.522Z,63.89
2019-04-26T17:55:02.603Z,64.75
2019-04-26T17:59:09.408Z,64.87
2019-04-26T18:03:13.128Z,64.89
2019-04-26T18:07:34.612Z,65.55
2019-04-26T18:11:19.569Z,65.71
2019-04-26T18:15:20.229Z,66.43
2019-04-26T18:19:42.330Z,66.83
2019-04-26T18:23:44.799Z,67.02
2019-04-26T18:27:46.825Z,67.26
2019-04-26T18:31:49.168Z,67.60
2019-04-26T18:35:55.938Z,68.11
2019-04-26T18:39:57.438Z,68.30
2019-04-26T18:43:59.744Z,69.37
2019-04-26T18:48:04.792Z,69.58
2019-04-26T18:52:08.882Z,69.19
2019-04-26T18:56:12.641Z,69.26
2019-04-26T19:00:26.508Z,70.43
2019-04-26T19:04:27.083Z,70.63
2019-04-26T19:08:29.205Z,71.76
2019-04-26T19:12:32.530Z,71.84
2019-04-26T19:16:59.270Z,71.48
2019-04-26T19:21:26.889Z,71.46
2019-04-26T19:25:35.654Z,72.10
2019-04-26T19:29:36.241Z,72.71
2019-04-26T19:33:38.502Z,72.79
2019-04-26T19:37:40.727Z,72.56
2019-04-26T19:41:43.176Z,72.73
2019-04-26T19:46:10.370Z,73.45
2019-04-26T19:50:50.535Z,73.55
2019-04-26T19:55:24.367Z,73.39
2019-04-26T19:59:27.533Z,73.24
2019-04-26T20:03:32.052Z,72.81
2019-04-26T20:07:34.433Z,72.58
2019-04-26T20:11:36.655Z,72.85
2019-04-26T20:15:38.783Z,72.76
2019-04-26T20:19:42.648Z,75.68
2019-04-26T20:23:47.323Z,75.49
2019-04-26T20:27:49.248Z,75.31
2019-04-26T20:32:09.068Z,75.56
2019-04-26T20:36:11.416Z,75.63
2019-04-26T20:40:20.210Z,75.39
2019-04-26T20:44:23.778Z,75.30
2019-04-26T20:48:25.548Z,75.40
2019-04-26T20:52:25.944Z,75.92
2019-04-26T20:56:28.213Z,76.03
2019-04-26T21:00:31.666Z,75.15
2019-04-26T21:04:38.194Z,75.33
2019-04-26T21:08:38.852Z,74.59
2019-04-26T21:12:41.801Z,73.69
2019-04-26T21:16:49.396Z,73.59
2019-04-26T21:20:47.845Z,74.21
2019-04-26T21:24:55.357Z,74.34
2019-04-26T21:29:28.008Z,75.44
2019-04-26T21:33:39.028Z,76.20
2019-04-26T21:37:45.469Z,76.34
2019-04-26T21:41:48.525Z,76.39
2019-04-26T21:45:50.791Z,76.70
2019-04-26T21:49:58.914Z,79.14
2019-04-26T21:53:57.122Z,79.75
2019-04-26T21:57:59.435Z,79.63
2019-04-26T22:02:03.384Z,80.57
2019-04-26T22:06:05.957Z,81.72
2019-04-26T22:10:14.981Z,81.83
2019-04-26T22:14:23.521Z,81.16
2019-04-26T22:18:35.077Z,81.20
2019-04-26T22:22:56.234Z,81.69
2019-04-26T22:26:58.575Z,81.42
2019-04-26T22:31:06.822Z,81.87
2019-04-26T22:35:04.909Z,82.30
2019-04-26T22:39:11.095Z,82.35
2019-04-26T22:43:30.679Z,82.59
2019-04-26T22:47:44.023Z,82.94
2019-04-26T22:51:46.053Z,83.27
2019-04-26T22:55:48.177Z,83.59
2019-04-26T22:59:50.745Z,83.62
2019-04-26T23:03:53.295Z,83.86
2019-04-26T23:07:59.269Z,84.04
2019-04-26T23:12:06.739Z,84.16
2019-04-26T23:16:40.411Z,83.96
2019-04-26T23:20:50.091Z,84.40
2019-04-26T23:24:54.530Z,84.53
2019-04-26T23:28:56.165Z,84.97
2019-04-26T23:32:58.499Z,84.89
2019-04-26T23:37:00.759Z,84.71
2019-04-26T23:41:06.964Z,84.75
2019-04-26T23:45:10.823Z,85.01
2019-04-26T23:49:11.868Z,85.38
2019-04-26T23:53:14.136Z,85.29
2019-04-26T23:57:16.230Z,85.53
